Raul Soares, Brazil
Current Conditions -  °F | °C
As of 7:00 PM on Saturday 22 Nov 2014 (Local Time) from SBCF Reporting Station
Few Clouds Few Clouds  
Wind Chill: 86°   Ceiling: Unl
Heat Index: 86°   Visibility: 6mi
Dew Point: 57°   Wind: 8mph
Humidity: 37%   Direction: 90°E
Pressure: 29.91"   Gusts: NA
Location:  20.1°S, 42.45°W
Report Text: SBCF 222100Z 09007KT 9999 FEW040 30/14 Q1013
Loading
Personal Weather Stations






























Interactive Weather Map New forecast layout! Learn more

10-Day Weather Forecast

Advertisements
Track Severe Weather on mobile